sensor_id;sensor_type;location;lat;lon;timestamp;pressure;altitude;pressure_sealevel;temperature;humidity
39949;BME280;29070;48.102;-1.652;2023-01-29T00:00:37;102951.19;;;4.65;68.72
39949;BME280;29070;48.102;-1.652;2023-01-29T00:05:37;102939.88;;;4.66;68.85
39949;BME280;29070;48.102;-1.652;2023-01-29T00:10:37;102933.00;;;4.65;68.82
39949;BME280;29070;48.102;-1.652;2023-01-29T00:15:38;102926.16;;;4.64;68.98
39949;BME280;29070;48.102;-1.652;2023-01-29T00:20:42;102920.09;;;4.63;68.82
39949;BME280;29070;48.102;-1.652;2023-01-29T00:25:43;102915.94;;;4.61;68.83
39949;BME280;29070;48.102;-1.652;2023-01-29T00:30:43;102918.53;;;4.61;68.79
39949;BME280;29070;48.102;-1.652;2023-01-29T00:35:44;102907.94;;;4.64;68.70
39949;BME280;29070;48.102;-1.652;2023-01-29T00:40:44;102908.66;;;4.66;69.04
39949;BME280;29070;48.102;-1.652;2023-01-29T00:46:03;102908.84;;;4.63;68.79
39949;BME280;29070;48.102;-1.652;2023-01-29T00:51:05;102901.16;;;4.61;68.87
39949;BME280;29070;48.102;-1.652;2023-01-29T00:56:06;102900.44;;;4.59;68.89
39949;BME280;29070;48.102;-1.652;2023-01-29T01:01:06;102905.72;;;4.57;68.93
39949;BME280;29070;48.102;-1.652;2023-01-29T01:06:08;102906.69;;;4.56;68.89
39949;BME280;29070;48.102;-1.652;2023-01-29T01:11:09;102912.59;;;4.58;68.78
39949;BME280;29070;48.102;-1.652;2023-01-29T01:16:11;102904.69;;;4.60;68.93
39949;BME280;29070;48.102;-1.652;2023-01-29T01:21:11;102908.31;;;4.57;69.16
39949;BME280;29070;48.102;-1.652;2023-01-29T01:26:12;102908.31;;;4.57;68.95
39949;BME280;29070;48.102;-1.652;2023-01-29T01:31:13;102900.75;;;4.54;68.89
39949;BME280;29070;48.102;-1.652;2023-01-29T01:36:13;102904.28;;;4.53;69.00
39949;BME280;29070;48.102;-1.652;2023-01-29T01:41:17;102906.13;;;4.51;69.10
39949;BME280;29070;48.102;-1.652;2023-01-29T01:46:18;102910.38;;;4.52;68.94
39949;BME280;29070;48.102;-1.652;2023-01-29T01:51:20;102926.94;;;4.51;68.85
39949;BME280;29070;48.102;-1.652;2023-01-29T01:56:28;102938.38;;;4.49;69.03
39949;BME280;29070;48.102;-1.652;2023-01-29T02:01:42;102946.28;;;4.47;69.06
39949;BME280;29070;48.102;-1.652;2023-01-29T02:06:43;102953.13;;;4.48;68.75
39949;BME280;29070;48.102;-1.652;2023-01-29T02:12:08;102931.50;;;4.48;69.13
39949;BME280;29070;48.102;-1.652;2023-01-29T02:17:11;102913.22;;;4.49;69.08
39949;BME280;29070;48.102;-1.652;2023-01-29T02:22:25;102911.53;;;4.48;68.97
39949;BME280;29070;48.102;-1.652;2023-01-29T02:28:20;102915.81;;;4.49;69.13
39949;BME280;29070;48.102;-1.652;2023-01-29T02:32:59;102921.13;;;4.48;69.17
39949;BME280;29070;48.102;-1.652;2023-01-29T02:43:35;102894.47;;;4.44;68.73
39949;BME280;29070;48.102;-1.652;2023-01-29T02:59:44;102901.44;;;4.44;69.02
39949;BME280;29070;48.102;-1.652;2023-01-29T03:04:59;102894.47;;;4.44;69.24
39949;BME280;29070;48.102;-1.652;2023-01-29T03:10:02;102885.00;;;4.43;69.13
39949;BME280;29070;48.102;-1.652;2023-01-29T03:15:08;102873.88;;;4.41;69.20
39949;BME280;29070;48.102;-1.652;2023-01-29T03:20:15;102871.38;;;4.39;69.17
39949;BME280;29070;48.102;-1.652;2023-01-29T03:25:17;102872.41;;;4.37;69.08
39949;BME280;29070;48.102;-1.652;2023-01-29T03:30:49;102871.88;;;4.32;69.02
39949;BME280;29070;48.102;-1.652;2023-01-29T03:36:17;102877.16;;;4.30;69.06
39949;BME280;29070;48.102;-1.652;2023-01-29T03:41:33;102885.91;;;4.29;68.80
39949;BME280;29070;48.102;-1.652;2023-01-29T03:46:40;102874.03;;;4.25;68.96
39949;BME280;29070;48.102;-1.652;2023-01-29T03:52:03;102885.66;;;4.19;68.79
39949;BME280;29070;48.102;-1.652;2023-01-29T04:02:27;102878.78;;;4.18;68.70
39949;BME280;29070;48.102;-1.652;2023-01-29T04:07:29;102884.75;;;4.20;68.57
39949;BME280;29070;48.102;-1.652;2023-01-29T04:12:40;102891.06;;;4.16;68.77
39949;BME280;29070;48.102;-1.652;2023-01-29T04:17:48;102892.94;;;4.14;68.74
39949;BME280;29070;48.102;-1.652;2023-01-29T04:22:50;102892.84;;;4.16;68.67
39949;BME280;29070;48.102;-1.652;2023-01-29T04:33:17;102895.44;;;4.16;68.49
39949;BME280;29070;48.102;-1.652;2023-01-29T04:54:40;102887.44;;;4.19;68.56
39949;BME280;29070;48.102;-1.652;2023-01-29T04:59:50;102884.84;;;4.19;68.53
39949;BME280;29070;48.102;-1.652;2023-01-29T05:04:55;102891.78;;;4.18;68.46
39949;BME280;29070;48.102;-1.652;2023-01-29T05:09:57;102885.56;;;4.21;68.54
39949;BME280;29070;48.102;-1.652;2023-01-29T05:15:01;102883.78;;;4.22;68.52
39949;BME280;29070;48.102;-1.652;2023-01-29T05:20:02;102878.50;;;4.23;68.46
39949;BME280;29070;48.102;-1.652;2023-01-29T05:25:02;102872.47;;;4.23;68.52
39949;BME280;29070;48.102;-1.652;2023-01-29T05:30:03;102885.47;;;4.23;68.37
39949;BME280;29070;48.102;-1.652;2023-01-29T05:35:04;102889.00;;;4.22;68.50
39949;BME280;29070;48.102;-1.652;2023-01-29T05:40:05;102895.06;;;4.22;68.53
39949;BME280;29070;48.102;-1.652;2023-01-29T05:45:08;102894.19;;;4.22;68.53
39949;BME280;29070;48.102;-1.652;2023-01-29T05:50:09;102901.06;;;4.23;68.66
39949;BME280;29070;48.102;-1.652;2023-01-29T05:55:10;102902.94;;;4.20;68.44
39949;BME280;29070;48.102;-1.652;2023-01-29T06:00:10;102899.50;;;4.20;68.25
39949;BME280;29070;48.102;-1.652;2023-01-29T06:05:12;102910.75;;;4.20;68.14
39949;BME280;29070;48.102;-1.652;2023-01-29T06:10:14;102907.19;;;4.22;68.03
39949;BME280;29070;48.102;-1.652;2023-01-29T06:15:15;102903.66;;;4.23;68.15
39949;BME280;29070;48.102;-1.652;2023-01-29T06:20:15;102911.47;;;4.23;68.01
39949;BME280;29070;48.102;-1.652;2023-01-29T06:25:15;102915.00;;;4.22;67.89
39949;BME280;29070;48.102;-1.652;2023-01-29T06:30:16;102920.81;;;4.25;67.89
39949;BME280;29070;48.102;-1.652;2023-01-29T06:35:16;102914.63;;;4.28;67.96
39949;BME280;29070;48.102;-1.652;2023-01-29T06:40:17;102917.94;;;4.30;68.06
39949;BME280;29070;48.102;-1.652;2023-01-29T06:45:17;102927.50;;;4.29;68.07
39949;BME280;29070;48.102;-1.652;2023-01-29T06:50:17;102930.00;;;4.31;68.24
39949;BME280;29070;48.102;-1.652;2023-01-29T06:55:18;102922.19;;;4.31;68.12
39949;BME280;29070;48.102;-1.652;2023-01-29T07:00:18;102917.94;;;4.30;68.25
39949;BME280;29070;48.102;-1.652;2023-01-29T07:05:19;102918.13;;;4.27;68.21
39949;BME280;29070;48.102;-1.652;2023-01-29T07:10:20;102913.13;;;4.24;68.48
39949;BME280;29070;48.102;-1.652;2023-01-29T07:15:20;102913.13;;;4.24;68.52
39949;BME280;29070;48.102;-1.652;2023-01-29T07:20:22;102907.19;;;4.22;68.61
39949;BME280;29070;48.102;-1.652;2023-01-29T07:25:24;102899.41;;;4.22;68.55
39949;BME280;29070;48.102;-1.652;2023-01-29T07:30:24;102893.38;;;4.21;68.37
39949;BME280;29070;48.102;-1.652;2023-01-29T07:35:24;102899.41;;;4.22;68.43
39949;BME280;29070;48.102;-1.652;2023-01-29T07:40:25;102909.69;;;4.23;68.75
39949;BME280;29070;48.102;-1.652;2023-01-29T07:45:26;102907.28;;;4.20;68.76
39949;BME280;29070;48.102;-1.652;2023-01-29T07:50:27;102904.59;;;4.22;68.59
39949;BME280;29070;48.102;-1.652;2023-01-29T07:55:28;102901.06;;;4.23;68.57
39949;BME280;29070;48.102;-1.652;2023-01-29T08:00:30;102882.88;;;4.23;68.56
39949;BME280;29070;48.102;-1.652;2023-01-29T08:05:31;102890.34;;;4.27;68.57
39949;BME280;29070;48.102;-1.652;2023-01-29T08:10:33;102893.59;;;4.31;68.71
39949;BME280;29070;48.102;-1.652;2023-01-29T08:15:34;102898.59;;;4.34;68.68
39949;BME280;29070;48.102;-1.652;2023-01-29T08:20:34;102893.31;;;4.35;68.46
39949;BME280;29070;48.102;-1.652;2023-01-29T08:25:35;102881.13;;;4.36;68.73
39949;BME280;29070;48.102;-1.652;2023-01-29T08:30:35;102888.75;;;4.39;68.63
39949;BME280;29070;48.102;-1.652;2023-01-29T08:35:36;102891.97;;;4.43;68.50
39949;BME280;29070;48.102;-1.652;2023-01-29T08:40:36;102901.13;;;4.48;68.51
39949;BME280;29070;48.102;-1.652;2023-01-29T08:45:39;102904.47;;;4.50;68.47
39949;BME280;29070;48.102;-1.652;2023-01-29T08:50:40;102905.41;;;4.49;68.45
39949;BME280;29070;48.102;-1.652;2023-01-29T08:55:40;102902.59;;;4.52;68.37
39949;BME280;29070;48.102;-1.652;2023-01-29T09:00:41;102907.78;;;4.52;68.19
39949;BME280;29070;48.102;-1.652;2023-01-29T09:05:41;102907.59;;;4.55;68.30
39949;BME280;29070;48.102;-1.652;2023-01-29T09:10:42;102903.66;;;4.63;68.36
39949;BME280;29070;48.102;-1.652;2023-01-29T09:15:42;102908.66;;;4.66;68.13
39949;BME280;29070;48.102;-1.652;2023-01-29T09:20:42;102900.66;;;4.69;68.23
39949;BME280;29070;48.102;-1.652;2023-01-29T09:25:43;102910.75;;;4.73;67.99
39949;BME280;29070;48.102;-1.652;2023-01-29T09:30:43;102911.81;;;4.84;68.04
39949;BME280;29070;48.102;-1.652;2023-01-29T09:35:44;102898.69;;;4.85;68.16
39949;BME280;29070;48.102;-1.652;2023-01-29T09:46:03;102910.25;;;4.94;67.79
39949;BME280;29070;48.102;-1.652;2023-01-29T09:51:11;102907.44;;;4.97;67.83
39949;BME280;29070;48.102;-1.652;2023-01-29T09:56:21;102898.28;;;4.91;67.60
39949;BME280;29070;48.102;-1.652;2023-01-29T10:01:49;102906.59;;;4.96;67.58
39949;BME280;29070;48.102;-1.652;2023-01-29T10:07:15;102896.81;;;5.00;67.52
39949;BME280;29070;48.102;-1.652;2023-01-29T10:23:28;102912.53;;;5.11;66.84
39949;BME280;29070;48.102;-1.652;2023-01-29T10:28:40;102916.28;;;5.07;67.18
39949;BME280;29070;48.102;-1.652;2023-01-29T10:39:23;102894.94;;;5.15;67.39
39949;BME280;29070;48.102;-1.652;2023-01-29T11:00:22;102895.94;;;5.38;67.18
39949;BME280;29070;48.102;-1.652;2023-01-29T11:05:28;102883.69;;;5.40;67.24
39949;BME280;29070;48.102;-1.652;2023-01-29T11:10:32;102885.31;;;5.41;67.01
39949;BME280;29070;48.102;-1.652;2023-01-29T11:15:35;102890.63;;;5.40;67.18
39949;BME280;29070;48.102;-1.652;2023-01-29T11:20:36;102892.41;;;5.39;67.13
39949;BME280;29070;48.102;-1.652;2023-01-29T11:25:36;102891.59;;;5.39;66.78
39949;BME280;29070;48.102;-1.652;2023-01-29T11:30:37;102880.13;;;5.41;67.21
39949;BME280;29070;48.102;-1.652;2023-01-29T11:35:38;102873.22;;;5.53;66.82
39949;BME280;29070;48.102;-1.652;2023-01-29T11:40:39;102872.13;;;5.68;67.07
39949;BME280;29070;48.102;-1.652;2023-01-29T11:45:40;102875.22;;;5.73;67.19
39949;BME280;29070;48.102;-1.652;2023-01-29T11:50:40;102870.44;;;5.80;67.15
39949;BME280;29070;48.102;-1.652;2023-01-29T11:55:44;102855.41;;;5.84;66.92
39949;BME280;29070;48.102;-1.652;2023-01-29T12:00:47;102853.50;;;5.86;66.75
39949;BME280;29070;48.102;-1.652;2023-01-29T12:05:58;102860.63;;;5.84;66.56
39949;BME280;29070;48.102;-1.652;2023-01-29T12:11:10;102839.75;;;5.84;66.25
39949;BME280;29070;48.102;-1.652;2023-01-29T12:26:43;102843.91;;;5.99;66.59
39949;BME280;29070;48.102;-1.652;2023-01-29T12:42:45;102807.53;;;6.09;66.17
39949;BME280;29070;48.102;-1.652;2023-01-29T12:48:00;102800.44;;;6.11;65.97
39949;BME280;29070;48.102;-1.652;2023-01-29T12:53:19;102797.00;;;6.10;65.42
39949;BME280;29070;48.102;-1.652;2023-01-29T12:58:28;102791.31;;;6.05;66.08
39949;BME280;29070;48.102;-1.652;2023-01-29T13:03:51;102782.56;;;6.06;65.91
39949;BME280;29070;48.102;-1.652;2023-01-29T13:08:58;102775.78;;;6.04;65.73
39949;BME280;29070;48.102;-1.652;2023-01-29T13:14:15;102775.66;;;6.05;65.72
39949;BME280;29070;48.102;-1.652;2023-01-29T13:19:37;102758.00;;;5.98;65.24
39949;BME280;29070;48.102;-1.652;2023-01-29T13:24:40;102752.06;;;5.96;65.61
39949;BME280;29070;48.102;-1.652;2023-01-29T13:29:42;102744.03;;;6.10;66.17
39949;BME280;29070;48.102;-1.652;2023-01-29T13:34:44;102743.09;;;6.11;65.83
39949;BME280;29070;48.102;-1.652;2023-01-29T13:39:49;102737.75;;;6.13;65.92
39949;BME280;29070;48.102;-1.652;2023-01-29T13:44:55;102730.66;;;6.15;65.86
39949;BME280;29070;48.102;-1.652;2023-01-29T13:50:00;102724.25;;;6.19;65.96
39949;BME280;29070;48.102;-1.652;2023-01-29T14:00:05;102712.06;;;6.30;66.18
39949;BME280;29070;48.102;-1.652;2023-01-29T14:10:31;102709.56;;;6.29;65.37
39949;BME280;29070;48.102;-1.652;2023-01-29T14:15:34;102704.94;;;6.33;65.79
39949;BME280;29070;48.102;-1.652;2023-01-29T14:25:49;102705.16;;;6.29;65.56
39949;BME280;29070;48.102;-1.652;2023-01-29T14:30:50;102706.25;;;6.38;65.94
39949;BME280;29070;48.102;-1.652;2023-01-29T14:35:52;102699.50;;;6.36;65.92
39949;BME280;29070;48.102;-1.652;2023-01-29T14:41:04;102694.88;;;6.39;65.77
39949;BME280;29070;48.102;-1.652;2023-01-29T14:46:40;102700.59;;;6.33;65.00
39949;BME280;29070;48.102;-1.652;2023-01-29T14:51:43;102703.75;;;6.25;65.89
39949;BME280;29070;48.102;-1.652;2023-01-29T14:57:03;102709.19;;;6.22;65.79
39949;BME280;29070;48.102;-1.652;2023-01-29T15:02:37;102709.44;;;6.19;65.64
39949;BME280;29070;48.102;-1.652;2023-01-29T15:07:43;102688.69;;;6.29;66.15
39949;BME280;29070;48.102;-1.652;2023-01-29T15:12:53;102698.19;;;6.30;65.99
39949;BME280;29070;48.102;-1.652;2023-01-29T15:18:36;102693.22;;;6.27;65.90
39949;BME280;29070;48.102;-1.652;2023-01-29T15:23:30;102696.53;;;6.29;66.09
39949;BME280;29070;48.102;-1.652;2023-01-29T15:28:33;102690.16;;;6.33;66.00
39949;BME280;29070;48.102;-1.652;2023-01-29T15:33:34;102684.69;;;6.36;66.14
39949;BME280;29070;48.102;-1.652;2023-01-29T15:38:37;102683.25;;;6.32;65.89
39949;BME280;29070;48.102;-1.652;2023-01-29T15:43:42;102692.50;;;6.25;65.89
39949;BME280;29070;48.102;-1.652;2023-01-29T15:48:43;102703.38;;;6.19;65.85
39949;BME280;29070;48.102;-1.652;2023-01-29T15:54:14;102692.72;;;6.22;65.89
39949;BME280;29070;48.102;-1.652;2023-01-29T15:59:23;102688.72;;;6.18;66.02
39949;BME280;29070;48.102;-1.652;2023-01-29T16:04:26;102684.44;;;6.17;66.14
39949;BME280;29070;48.102;-1.652;2023-01-29T16:09:28;102686.09;;;6.18;66.32
39949;BME280;29070;48.102;-1.652;2023-01-29T16:14:29;102684.44;;;6.17;66.08
39949;BME280;29070;48.102;-1.652;2023-01-29T16:19:30;102687.28;;;6.14;66.14
39949;BME280;29070;48.102;-1.652;2023-01-29T16:24:34;102686.09;;;6.18;66.19
39949;BME280;29070;48.102;-1.652;2023-01-29T16:29:35;102693.09;;;6.17;66.32
39949;BME280;29070;48.102;-1.652;2023-01-29T16:34:40;102684.44;;;6.17;66.38
39949;BME280;29070;48.102;-1.652;2023-01-29T16:39:45;102683.59;;;6.16;66.60
39949;BME280;29070;48.102;-1.652;2023-01-29T16:49:52;102687.50;;;6.10;66.63
39949;BME280;29070;48.102;-1.652;2023-01-29T16:54:58;102697.13;;;6.10;66.63
39949;BME280;29070;48.102;-1.652;2023-01-29T17:00:02;102687.41;;;6.12;66.97
39949;BME280;29070;48.102;-1.652;2023-01-29T17:05:09;102697.94;;;6.10;66.54
39949;BME280;29070;48.102;-1.652;2023-01-29T17:10:18;102694.50;;;6.10;66.71
39949;BME280;29070;48.102;-1.652;2023-01-29T17:20:31;102682.28;;;5.99;66.67
39949;BME280;29070;48.102;-1.652;2023-01-29T17:25:31;102688.94;;;6.03;66.76
39949;BME280;29070;48.102;-1.652;2023-01-29T17:30:33;102688.94;;;6.03;66.79
39949;BME280;29070;48.102;-1.652;2023-01-29T17:35:36;102691.41;;;6.05;66.89
39949;BME280;29070;48.102;-1.652;2023-01-29T17:45:39;102690.13;;;5.99;67.00
39949;BME280;29070;48.102;-1.652;2023-01-29T17:50:42;102697.69;;;6.02;67.37
39949;BME280;29070;48.102;-1.652;2023-01-29T17:55:48;102700.41;;;6.01;66.96
39949;BME280;29070;48.102;-1.652;2023-01-29T18:00:48;102697.19;;;5.97;67.18
39949;BME280;29070;48.102;-1.652;2023-01-29T18:05:49;102696.25;;;5.98;67.00
39949;BME280;29070;48.102;-1.652;2023-01-29T18:10:49;102686.75;;;5.97;67.34
39949;BME280;29070;48.102;-1.652;2023-01-29T18:15:50;102690.81;;;6.01;67.26
39949;BME280;29070;48.102;-1.652;2023-01-29T18:20:51;102685.59;;;6.01;67.35
39949;BME280;29070;48.102;-1.652;2023-01-29T18:25:51;102689.97;;;6.01;67.44
39949;BME280;29070;48.102;-1.652;2023-01-29T18:30:53;102692.72;;;5.99;67.65
39949;BME280;29070;48.102;-1.652;2023-01-29T18:35:54;102678.50;;;6.03;67.55
39949;BME280;29070;48.102;-1.652;2023-01-29T18:41:02;102675.41;;;5.98;67.51
39949;BME280;29070;48.102;-1.652;2023-01-29T18:46:02;102678.94;;;5.97;67.64
39949;BME280;29070;48.102;-1.652;2023-01-29T18:51:03;102675.00;;;5.91;67.50
39949;BME280;29070;48.102;-1.652;2023-01-29T18:56:04;102667.06;;;5.93;67.84
39949;BME280;29070;48.102;-1.652;2023-01-29T19:01:06;102668.97;;;5.91;67.91
39949;BME280;29070;48.102;-1.652;2023-01-29T19:06:09;102671.91;;;5.86;67.53
39949;BME280;29070;48.102;-1.652;2023-01-29T19:11:11;102665.88;;;5.86;67.76
39949;BME280;29070;48.102;-1.652;2023-01-29T19:16:12;102668.47;;;5.86;68.09
39949;BME280;29070;48.102;-1.652;2023-01-29T19:21:14;102658.06;;;5.86;67.94
39949;BME280;29070;48.102;-1.652;2023-01-29T19:26:16;102655.66;;;5.83;67.77
39949;BME280;29070;48.102;-1.652;2023-01-29T19:31:17;102653.81;;;5.85;68.13
39949;BME280;29070;48.102;-1.652;2023-01-29T19:36:17;102653.81;;;5.85;68.25
39949;BME280;29070;48.102;-1.652;2023-01-29T19:41:17;102657.56;;;5.81;68.13
39949;BME280;29070;48.102;-1.652;2023-01-29T19:46:18;102654.84;;;5.82;67.93
39949;BME280;29070;48.102;-1.652;2023-01-29T19:51:19;102655.19;;;5.78;68.25
39949;BME280;29070;48.102;-1.652;2023-01-29T19:56:20;102647.63;;;5.86;68.15
39949;BME280;29070;48.102;-1.652;2023-01-29T20:01:20;102648.59;;;5.85;68.28
39949;BME280;29070;48.102;-1.652;2023-01-29T20:06:24;102653.31;;;5.80;68.45
39949;BME280;29070;48.102;-1.652;2023-01-29T20:11:25;102661.34;;;5.77;68.22
39949;BME280;29070;48.102;-1.652;2023-01-29T20:16:26;102670.09;;;5.76;68.29
39949;BME280;29070;48.102;-1.652;2023-01-29T20:21:26;102665.16;;;5.72;68.32
39949;BME280;29070;48.102;-1.652;2023-01-29T20:26:27;102666.06;;;5.71;68.53
39949;BME280;29070;48.102;-1.652;2023-01-29T20:31:27;102660.97;;;5.70;68.62
39949;BME280;29070;48.102;-1.652;2023-01-29T20:36:27;102667.00;;;5.70;68.65
39949;BME280;29070;48.102;-1.652;2023-01-29T20:41:28;102667.59;;;5.74;68.44
39949;BME280;29070;48.102;-1.652;2023-01-29T20:46:28;102670.22;;;5.74;68.43
39949;BME280;29070;48.102;-1.652;2023-01-29T20:51:29;102665.16;;;5.72;68.83
39949;BME280;29070;48.102;-1.652;2023-01-29T20:56:29;102653.97;;;5.70;68.88
39949;BME280;29070;48.102;-1.652;2023-01-29T21:01:30;102665.25;;;5.71;68.70
39949;BME280;29070;48.102;-1.652;2023-01-29T21:06:30;102663.47;;;5.71;68.77
39949;BME280;29070;48.102;-1.652;2023-01-29T21:11:31;102680.78;;;5.72;68.91
39949;BME280;29070;48.102;-1.652;2023-01-29T21:16:32;102686.69;;;5.75;68.66
39949;BME280;29070;48.102;-1.652;2023-01-29T21:21:33;102702.56;;;5.71;68.98
39949;BME280;29070;48.102;-1.652;2023-01-29T21:26:34;102696.53;;;5.71;68.96
39949;BME280;29070;48.102;-1.652;2023-01-29T21:31:37;102686.00;;;5.72;69.05
39949;BME280;29070;48.102;-1.652;2023-01-29T21:36:38;102692.03;;;5.73;68.89
39949;BME280;29070;48.102;-1.652;2023-01-29T21:41:38;102689.63;;;5.70;69.09
39949;BME280;29070;48.102;-1.652;2023-01-29T21:46:57;102670.56;;;5.69;69.02
39949;BME280;29070;48.102;-1.652;2023-01-29T21:51:57;102673.50;;;5.65;69.00
39949;BME280;29070;48.102;-1.652;2023-01-29T21:56:58;102670.31;;;5.61;69.32
39949;BME280;29070;48.102;-1.652;2023-01-29T22:01:59;102660.84;;;5.60;69.38
39949;BME280;29070;48.102;-1.652;2023-01-29T22:06:59;102668.56;;;5.62;69.71
39949;BME280;29070;48.102;-1.652;2023-01-29T22:12:00;102676.47;;;5.60;69.46
39949;BME280;29070;48.102;-1.652;2023-01-29T22:17:00;102688.31;;;5.64;69.27
39949;BME280;29070;48.102;-1.652;2023-01-29T22:22:00;102675.50;;;5.61;69.58
39949;BME280;29070;48.102;-1.652;2023-01-29T22:27:01;102659.38;;;5.56;69.32
39949;BME280;29070;48.102;-1.652;2023-01-29T22:32:01;102644.25;;;5.61;69.42
39949;BME280;29070;48.102;-1.652;2023-01-29T22:37:01;102658.84;;;5.64;69.48
39949;BME280;29070;48.102;-1.652;2023-01-29T22:42:02;102679.06;;;5.60;69.50
39949;BME280;29070;48.102;-1.652;2023-01-29T22:47:02;102674.19;;;5.56;69.44
39949;BME280;29070;48.102;-1.652;2023-01-29T22:52:03;102701.75;;;5.47;69.64
39949;BME280;29070;48.102;-1.652;2023-01-29T22:57:11;102698.09;;;5.49;69.63
39949;BME280;29070;48.102;-1.652;2023-01-29T23:02:11;102713.16;;;5.57;69.90
39949;BME280;29070;48.102;-1.652;2023-01-29T23:07:11;102720.97;;;5.57;69.85
39949;BME280;29070;48.102;-1.652;2023-01-29T23:12:12;102736.50;;;5.59;69.92
39949;BME280;29070;48.102;-1.652;2023-01-29T23:17:14;102719.59;;;5.64;69.79
39949;BME280;29070;48.102;-1.652;2023-01-29T23:22:14;102693.53;;;5.64;70.05
39949;BME280;29070;48.102;-1.652;2023-01-29T23:27:14;102686.66;;;5.63;70.08
39949;BME280;29070;48.102;-1.652;2023-01-29T23:32:17;102655.38;;;5.63;70.15
39949;BME280;29070;48.102;-1.652;2023-01-29T23:37:18;102652.91;;;5.62;70.07
39949;BME280;29070;48.102;-1.652;2023-01-29T23:42:18;102625.81;;;5.64;70.25
39949;BME280;29070;48.102;-1.652;2023-01-29T23:47:18;102632.53;;;5.56;70.22
39949;BME280;29070;48.102;-1.652;2023-01-29T23:52:19;102636.19;;;5.53;70.30
39949;BME280;29070;48.102;-1.652;2023-01-29T23:57:19;102641.41;;;5.53;70.35
